createdAt,value
2018-09-12T00:00:37.630Z,3.30
2018-09-12T00:01:41.028Z,3.20
2018-09-12T00:02:44.418Z,3.20
2018-09-12T00:03:47.838Z,3.47
2018-09-12T00:04:51.259Z,3.37
2018-09-12T00:05:54.680Z,3.53
2018-09-12T00:06:58.111Z,3.27
2018-09-12T00:08:01.494Z,3.40
2018-09-12T00:09:07.784Z,3.33
2018-09-12T00:10:11.203Z,3.20
2018-09-12T00:11:14.616Z,3.03
2018-09-12T00:12:18.020Z,3.50
2018-09-12T00:13:21.400Z,3.63
2018-09-12T00:14:24.810Z,3.93
2018-09-12T00:15:28.190Z,3.33
2018-09-12T00:16:31.553Z,3.23
2018-09-12T00:17:34.976Z,3.47
2018-09-12T00:18:38.385Z,3.37
2018-09-12T00:19:41.774Z,3.17
2018-09-12T00:20:45.196Z,2.97
2018-09-12T00:21:48.621Z,3.23
2018-09-12T00:22:51.980Z,3.63
2018-09-12T00:23:55.353Z,3.00
2018-09-12T00:24:58.788Z,3.60
2018-09-12T00:26:02.610Z,3.00
2018-09-12T00:27:06.031Z,3.13
2018-09-12T00:28:09.432Z,3.00
2018-09-12T00:29:12.824Z,2.77
2018-09-12T00:30:16.205Z,2.90
2018-09-12T00:31:19.608Z,3.37
2018-09-12T00:32:22.986Z,3.50
2018-09-12T00:33:26.379Z,3.03
2018-09-12T00:34:29.766Z,2.80
2018-09-12T00:35:33.129Z,3.13
2018-09-12T00:36:36.572Z,3.43
2018-09-12T00:37:39.968Z,3.50
2018-09-12T00:38:43.363Z,3.03
2018-09-12T00:39:46.800Z,2.80
2018-09-12T00:40:50.264Z,3.53
2018-09-12T00:41:53.644Z,3.10
2018-09-12T00:42:57.059Z,2.80
2018-09-12T00:44:00.462Z,2.53
2018-09-12T00:45:04.143Z,3.00
2018-09-12T00:46:07.518Z,3.03
2018-09-12T00:47:11.033Z,3.30
2018-09-12T00:48:14.439Z,3.03
2018-09-12T00:49:17.795Z,3.33
2018-09-12T00:50:21.197Z,2.53
2018-09-12T00:51:24.589Z,2.70
2018-09-12T00:52:27.950Z,3.20
2018-09-12T00:53:31.362Z,3.13
2018-09-12T00:54:34.773Z,3.10
2018-09-12T00:55:38.206Z,3.30
2018-09-12T00:56:41.591Z,3.20
2018-09-12T00:57:44.991Z,3.27
2018-09-12T00:58:48.461Z,3.57
2018-09-12T00:59:51.850Z,3.10
2018-09-12T01:00:55.326Z,2.87
2018-09-12T01:01:58.700Z,3.03
2018-09-12T01:03:02.949Z,2.97
2018-09-12T01:04:06.387Z,2.80
2018-09-12T01:05:10.084Z,3.17
2018-09-12T01:06:13.494Z,2.63
2018-09-12T01:07:16.885Z,2.77
2018-09-12T01:08:20.267Z,3.70
2018-09-12T01:09:23.658Z,2.77
2018-09-12T01:10:27.062Z,3.10
2018-09-12T01:11:30.591Z,3.00
2018-09-12T01:12:34.161Z,2.80
2018-09-12T01:13:37.570Z,3.43
2018-09-12T01:14:40.960Z,3.03
2018-09-12T01:15:44.374Z,3.23
2018-09-12T01:16:47.871Z,3.10
2018-09-12T01:17:51.253Z,2.83
2018-09-12T01:18:54.673Z,2.80
2018-09-12T01:19:58.062Z,2.83
2018-09-12T01:21:01.623Z,2.80
2018-09-12T01:22:05.018Z,2.83
2018-09-12T01:23:08.406Z,2.97
2018-09-12T01:24:11.795Z,3.00
2018-09-12T01:25:15.176Z,3.27
2018-09-12T01:26:18.607Z,3.20
2018-09-12T01:27:21.976Z,2.70
2018-09-12T01:28:25.360Z,2.50
2018-09-12T01:29:28.899Z,2.90
2018-09-12T01:30:32.272Z,3.10
2018-09-12T01:31:35.703Z,3.10
2018-09-12T01:32:39.072Z,2.93
2018-09-12T01:33:42.458Z,2.83
2018-09-12T01:34:45.898Z,3.30
2018-09-12T01:35:49.323Z,2.90
2018-09-12T01:36:52.748Z,3.37
2018-09-12T01:37:56.139Z,2.90
2018-09-12T01:38:59.535Z,2.90
2018-09-12T01:40:03.090Z,2.73
2018-09-12T01:41:06.584Z,2.60
2018-09-12T01:42:09.950Z,3.20
2018-09-12T01:43:13.326Z,2.60
2018-09-12T01:44:16.682Z,2.93
2018-09-12T01:45:20.525Z,2.70
2018-09-12T01:46:23.933Z,3.10
2018-09-12T01:47:27.290Z,2.50
2018-09-12T01:48:30.670Z,4.00
2018-09-12T01:49:34.074Z,2.97
2018-09-12T01:50:37.498Z,2.93
2018-09-12T01:51:40.895Z,3.00
2018-09-12T01:52:44.586Z,2.80
2018-09-12T01:53:48.011Z,2.60
2018-09-12T01:54:51.455Z,3.30
2018-09-12T01:55:54.878Z,2.83
2018-09-12T01:56:58.258Z,2.57
2018-09-12T01:58:01.672Z,2.37
2018-09-12T01:59:05.354Z,2.70
2018-09-12T02:00:12.527Z,2.50
2018-09-12T02:01:15.925Z,2.87
2018-09-12T02:02:19.346Z,2.70
2018-09-12T02:03:22.709Z,2.80
2018-09-12T02:04:26.099Z,2.80
2018-09-12T02:05:29.502Z,2.40
2018-09-12T02:06:32.918Z,2.37
2018-09-12T02:07:37.416Z,2.60
2018-09-12T02:08:40.826Z,3.10
2018-09-12T02:09:44.220Z,2.60
2018-09-12T02:10:47.665Z,2.70
2018-09-12T02:11:51.076Z,3.40
2018-09-12T02:12:54.453Z,2.70
2018-09-12T02:13:57.959Z,2.50
2018-09-12T02:15:01.324Z,2.50
2018-09-12T02:16:04.760Z,2.87
2018-09-12T02:17:08.192Z,2.77
2018-09-12T02:18:11.589Z,3.03
2018-09-12T02:19:14.994Z,2.87
2018-09-12T02:20:18.417Z,2.67
2018-09-12T02:21:21.821Z,2.70
2018-09-12T02:22:25.251Z,2.63
2018-09-12T02:23:28.616Z,2.97
2018-09-12T02:24:32.019Z,2.47
2018-09-12T02:25:35.413Z,2.90
2018-09-12T02:26:38.884Z,2.60
2018-09-12T02:27:42.420Z,2.10
2018-09-12T02:28:45.828Z,2.30
2018-09-12T02:29:49.238Z,2.60
2018-09-12T02:30:52.838Z,2.70
2018-09-12T02:31:56.246Z,2.37
2018-09-12T02:32:59.640Z,2.80
2018-09-12T02:34:03.074Z,2.90
2018-09-12T02:35:06.573Z,2.37
2018-09-12T02:36:15.374Z,3.10
2018-09-12T02:37:18.752Z,2.40
2018-09-12T02:38:22.152Z,2.80
2018-09-12T02:39:25.731Z,2.63
2018-09-12T02:40:29.128Z,2.40
2018-09-12T02:41:33.215Z,2.40
2018-09-12T02:42:36.596Z,2.90
2018-09-12T02:43:40.010Z,2.60
2018-09-12T02:44:43.378Z,2.20
2018-09-12T02:45:46.833Z,2.87
2018-09-12T02:46:50.207Z,2.40
2018-09-12T02:47:53.627Z,2.30
2018-09-12T02:48:57.063Z,2.83
2018-09-12T02:50:00.450Z,2.77
2018-09-12T02:51:03.907Z,2.43
2018-09-12T02:52:07.325Z,2.80
2018-09-12T02:53:10.744Z,3.20
2018-09-12T02:54:14.195Z,2.60
2018-09-12T02:55:17.559Z,2.53
2018-09-12T02:56:20.967Z,2.40
2018-09-12T02:57:24.368Z,2.57
2018-09-12T02:58:27.799Z,2.27
2018-09-12T02:59:31.268Z,2.60
2018-09-12T03:00:34.691Z,2.87
2018-09-12T03:01:38.159Z,2.30
2018-09-12T03:02:41.539Z,2.93
2018-09-12T03:03:44.913Z,2.60
2018-09-12T03:04:52.896Z,2.20
2018-09-12T03:05:56.353Z,2.73
2018-09-12T03:06:59.972Z,2.30
2018-09-12T03:08:03.482Z,2.50
2018-09-12T03:09:07.914Z,2.53
2018-09-12T03:10:11.400Z,2.60
2018-09-12T03:11:14.794Z,2.70
2018-09-12T03:12:18.198Z,2.33
2018-09-12T03:13:21.579Z,2.43
2018-09-12T03:14:24.927Z,3.00
2018-09-12T03:15:28.348Z,2.47
2018-09-12T03:16:32.252Z,2.30
2018-09-12T03:17:35.706Z,3.17
2018-09-12T03:18:39.116Z,2.70
2018-09-12T03:19:42.547Z,2.13
2018-09-12T03:20:46.042Z,2.77
2018-09-12T03:21:49.850Z,2.63
2018-09-12T03:22:53.244Z,2.33
2018-09-12T03:23:56.680Z,2.37
2018-09-12T03:25:00.058Z,2.30
2018-09-12T03:26:03.569Z,2.23
2018-09-12T03:27:06.986Z,2.50
2018-09-12T03:28:10.412Z,2.50
2018-09-12T03:29:13.804Z,2.80
2018-09-12T03:30:17.194Z,2.30
2018-09-12T03:31:20.629Z,2.30
2018-09-12T03:32:24.037Z,2.10
2018-09-12T03:33:27.453Z,2.20
2018-09-12T03:34:31.286Z,2.33
2018-09-12T03:35:34.722Z,2.73
2018-09-12T03:36:38.155Z,2.60
2018-09-12T03:37:41.559Z,2.70
2018-09-12T03:38:44.965Z,2.50
2018-09-12T03:39:48.388Z,2.27
2018-09-12T03:40:51.784Z,2.83
2018-09-12T03:41:55.208Z,2.70
2018-09-12T03:42:58.616Z,2.10
2018-09-12T03:44:02.043Z,2.43
2018-09-12T03:45:05.608Z,2.07
2018-09-12T03:46:08.985Z,2.30
2018-09-12T03:47:12.432Z,2.40
2018-09-12T03:48:15.834Z,1.70
2018-09-12T03:49:19.236Z,2.37
2018-09-12T03:50:22.594Z,2.20
2018-09-12T03:51:25.999Z,2.20
2018-09-12T03:52:29.421Z,2.37
2018-09-12T03:53:32.844Z,2.40
2018-09-12T03:54:36.260Z,2.40
2018-09-12T03:55:39.667Z,2.10
2018-09-12T03:56:43.082Z,2.20
2018-09-12T03:57:46.561Z,2.07
2018-09-12T03:58:49.942Z,2.30
2018-09-12T03:59:53.310Z,2.10
2018-09-12T04:00:56.689Z,2.20
2018-09-12T04:02:00.069Z,1.97
2018-09-12T04:03:03.585Z,2.10
2018-09-12T04:04:07.029Z,2.73
2018-09-12T04:05:10.424Z,2.00
2018-09-12T04:06:13.782Z,2.30
2018-09-12T04:07:17.166Z,2.70
2018-09-12T04:08:20.571Z,2.37
2018-09-12T04:09:23.947Z,2.20
2018-09-12T04:10:27.360Z,2.27
2018-09-12T04:11:30.777Z,2.30
2018-09-12T04:12:34.259Z,2.23
2018-09-12T04:13:37.658Z,2.30
2018-09-12T04:14:41.045Z,1.83
2018-09-12T04:15:44.432Z,2.50
2018-09-12T04:16:47.842Z,2.37
2018-09-12T04:17:51.194Z,2.20
2018-09-12T04:18:54.590Z,2.80
2018-09-12T04:19:57.999Z,2.17
2018-09-12T04:21:01.732Z,2.40
2018-09-12T04:22:05.156Z,1.80
2018-09-12T04:23:08.590Z,2.57
2018-09-12T04:24:12.049Z,2.00
2018-09-12T04:25:15.429Z,2.10
2018-09-12T04:26:18.835Z,2.20
2018-09-12T04:27:22.256Z,2.73
2018-09-12T04:28:25.655Z,2.73
2018-09-12T04:29:29.100Z,2.27
2018-09-12T04:30:32.577Z,2.30
2018-09-12T04:31:35.964Z,2.67
2018-09-12T04:32:39.387Z,2.37
2018-09-12T04:33:42.801Z,1.80
2018-09-12T04:34:46.219Z,2.20
2018-09-12T04:35:49.601Z,2.63
2018-09-12T04:36:53.118Z,2.00
2018-09-12T04:37:56.492Z,2.20
2018-09-12T04:38:59.916Z,2.17
2018-09-12T04:40:03.516Z,1.93
2018-09-12T04:41:07.120Z,2.40
2018-09-12T04:42:10.545Z,2.27
2018-09-12T04:43:14.007Z,2.70
2018-09-12T04:44:17.376Z,2.50
2018-09-12T04:45:20.978Z,2.63
2018-09-12T04:46:24.368Z,2.10
2018-09-12T04:47:27.764Z,2.00
2018-09-12T04:48:31.387Z,1.83
2018-09-12T04:49:34.827Z,2.17
2018-09-12T04:50:38.259Z,2.40
2018-09-12T04:51:41.651Z,2.40
2018-09-12T04:52:45.093Z,2.27
2018-09-12T04:53:48.538Z,2.17
2018-09-12T04:54:51.923Z,2.43
2018-09-12T04:55:55.351Z,2.30
2018-09-12T04:56:58.747Z,2.50
2018-09-12T04:58:02.187Z,2.57
2018-09-12T04:59:05.907Z,1.90
2018-09-12T05:00:09.341Z,2.30
2018-09-12T05:01:12.770Z,2.10
2018-09-12T05:02:16.158Z,2.00
2018-09-12T05:03:19.546Z,2.00
2018-09-12T05:04:23.016Z,2.17
2018-09-12T05:05:26.418Z,2.17
2018-09-12T05:06:29.822Z,2.33
2018-09-12T05:07:33.259Z,2.37
2018-09-12T05:08:36.679Z,1.90
2018-09-12T05:09:40.104Z,2.13
2018-09-12T05:10:43.555Z,2.07
2018-09-12T05:11:46.952Z,2.10
2018-09-12T05:12:50.389Z,2.30
2018-09-12T05:13:53.782Z,2.40
2018-09-12T05:14:57.236Z,2.00
2018-09-12T05:16:00.704Z,2.30
2018-09-12T05:17:04.110Z,1.70
2018-09-12T05:18:07.498Z,2.10
2018-09-12T05:19:10.953Z,2.10
2018-09-12T05:20:14.369Z,2.30
2018-09-12T05:21:17.785Z,2.20
2018-09-12T05:22:21.242Z,2.30
2018-09-12T05:23:24.664Z,2.50
2018-09-12T05:24:28.111Z,2.00
2018-09-12T05:25:31.469Z,1.97
2018-09-12T05:26:34.873Z,2.40
2018-09-12T05:27:38.334Z,2.33
2018-09-12T05:28:41.734Z,2.20
2018-09-12T05:29:45.145Z,2.27
2018-09-12T05:30:48.562Z,2.37
2018-09-12T05:31:51.956Z,1.77
2018-09-12T05:32:55.389Z,2.07
2018-09-12T05:33:58.786Z,1.60
2018-09-12T05:35:02.402Z,2.13
2018-09-12T05:36:06.137Z,2.60
2018-09-12T05:37:09.534Z,1.77
2018-09-12T05:38:12.908Z,2.40
2018-09-12T05:39:16.313Z,2.10
2018-09-12T05:40:19.734Z,2.43
2018-09-12T05:41:23.119Z,2.20
2018-09-12T05:42:26.571Z,2.57
2018-09-12T05:43:29.974Z,2.00
2018-09-12T05:44:33.450Z,1.90
2018-09-12T05:45:36.900Z,2.30
2018-09-12T05:46:40.268Z,1.80
2018-09-12T05:47:43.754Z,1.90
2018-09-12T05:48:47.222Z,2.50
2018-09-12T05:49:50.610Z,2.27
2018-09-12T05:50:54.001Z,1.70
2018-09-12T05:51:57.407Z,2.10
2018-09-12T05:53:00.801Z,2.03
2018-09-12T05:54:04.244Z,2.23
2018-09-12T05:55:07.717Z,2.03
2018-09-12T05:56:11.100Z,2.10
2018-09-12T05:57:14.531Z,2.50
2018-09-12T05:58:17.910Z,2.80
2018-09-12T05:59:21.323Z,2.60
2018-09-12T06:00:24.732Z,2.27
2018-09-12T06:01:28.122Z,2.63
2018-09-12T06:02:31.524Z,2.50
2018-09-12T06:03:35.048Z,2.80
2018-09-12T06:04:38.526Z,3.53
2018-09-12T06:05:42.037Z,3.17
2018-09-12T06:06:45.512Z,2.70
2018-09-12T06:07:48.875Z,3.27
2018-09-12T06:08:52.250Z,3.60
2018-09-12T06:09:55.675Z,3.43
2018-09-12T06:10:59.102Z,3.47
2018-09-12T06:12:02.508Z,3.27
2018-09-12T06:13:05.936Z,3.60
2018-09-12T06:14:09.458Z,3.10
2018-09-12T06:15:13.040Z,4.00
2018-09-12T06:16:16.514Z,3.70
2018-09-12T06:17:19.909Z,3.67
2018-09-12T06:18:23.301Z,3.57
2018-09-12T06:19:26.705Z,3.30
2018-09-12T06:20:30.070Z,3.40
2018-09-12T06:21:33.491Z,2.90
2018-09-12T06:22:37.014Z,4.27
2018-09-12T06:23:40.876Z,4.77
2018-09-12T06:24:44.273Z,4.20
2018-09-12T06:25:47.655Z,4.00
2018-09-12T06:26:51.029Z,3.60
2018-09-12T06:27:54.401Z,4.07
2018-09-12T06:28:57.799Z,3.93
2018-09-12T06:30:01.273Z,4.20
2018-09-12T06:31:04.744Z,4.20
2018-09-12T06:32:08.609Z,4.00
2018-09-12T06:33:12.730Z,3.30
2018-09-12T06:34:16.877Z,3.23
2018-09-12T06:35:20.933Z,3.40
2018-09-12T06:36:24.569Z,4.00
2018-09-12T06:37:28.642Z,3.20
2018-09-12T06:38:32.614Z,3.40
2018-09-12T06:39:36.314Z,3.53
2018-09-12T06:40:40.337Z,3.30
2018-09-12T06:41:43.944Z,2.90
2018-09-12T06:42:47.396Z,3.63
2018-09-12T06:43:50.875Z,3.07
2018-09-12T06:44:54.276Z,3.50
2018-09-12T06:45:57.662Z,3.47
2018-09-12T06:47:01.097Z,3.60
2018-09-12T06:48:04.542Z,3.97
2018-09-12T06:49:08.503Z,3.40
2018-09-12T06:50:11.892Z,3.47
2018-09-12T06:51:15.327Z,2.97
2018-09-12T06:52:21.320Z,3.60
2018-09-12T06:53:24.812Z,3.30
2018-09-12T06:54:28.478Z,3.17
2018-09-12T06:55:32.203Z,3.30
2018-09-12T06:56:35.877Z,3.23
2018-09-12T06:57:39.598Z,2.97
2018-09-12T06:58:44.054Z,3.17
2018-09-12T06:59:47.462Z,3.70
2018-09-12T07:00:51.045Z,3.20
2018-09-12T07:01:54.448Z,3.50
2018-09-12T07:02:57.832Z,3.63
2018-09-12T07:04:01.233Z,3.30
2018-09-12T07:05:04.888Z,3.60
2018-09-12T07:06:08.537Z,3.50
2018-09-12T07:07:11.911Z,3.27
2018-09-12T07:08:15.300Z,3.50
2018-09-12T07:09:18.684Z,3.70
2018-09-12T07:10:22.098Z,3.23
2018-09-12T07:11:25.522Z,2.83
2018-09-12T07:12:28.932Z,3.93
2018-09-12T07:13:32.410Z,3.37
2018-09-12T07:14:36.204Z,3.37
2018-09-12T07:15:39.588Z,3.67
2018-09-12T07:16:42.975Z,3.50
2018-09-12T07:17:46.368Z,3.67
2018-09-12T07:18:49.801Z,3.13
2018-09-12T07:19:53.200Z,3.03
2018-09-12T07:20:56.592Z,3.13
2018-09-12T07:21:59.985Z,3.70
2018-09-12T07:23:03.455Z,2.90
2018-09-12T07:24:06.944Z,3.80
2018-09-12T07:25:10.394Z,3.30
2018-09-12T07:26:13.801Z,3.10
2018-09-12T07:27:17.223Z,2.80
2018-09-12T07:28:20.606Z,3.33
2018-09-12T07:29:24.063Z,3.37
2018-09-12T07:30:27.519Z,3.50
2018-09-12T07:31:30.859Z,3.33
2018-09-12T07:32:34.246Z,3.30
2018-09-12T07:33:37.660Z,2.70
2018-09-12T07:34:41.079Z,2.90
2018-09-12T07:35:44.530Z,3.00
2018-09-12T07:36:47.899Z,3.53
2018-09-12T07:37:51.902Z,3.10
2018-09-12T07:38:55.562Z,3.30
2018-09-12T07:39:59.038Z,3.27
2018-09-12T07:41:02.556Z,3.73
2018-09-12T07:42:06.031Z,3.87
2018-09-12T07:43:09.600Z,2.87
2018-09-12T07:44:13.012Z,2.53
2018-09-12T07:45:16.447Z,3.40
2018-09-12T07:46:19.844Z,2.97
2018-09-12T07:47:23.265Z,2.93
2018-09-12T07:48:26.693Z,3.27
2018-09-12T07:49:30.232Z,2.80
2018-09-12T07:50:33.722Z,2.87
2018-09-12T07:51:37.166Z,2.90
2018-09-12T07:52:40.556Z,3.40
2018-09-12T07:53:43.964Z,2.90
2018-09-12T07:54:47.330Z,3.60
2018-09-12T07:55:50.764Z,3.40
2018-09-12T07:56:57.985Z,2.90
2018-09-12T07:58:02.545Z,2.97
2018-09-12T07:59:10.133Z,3.43
2018-09-12T08:00:17.069Z,3.40
2018-09-12T08:01:23.990Z,3.27
2018-09-12T08:02:30.664Z,3.20
2018-09-12T08:03:37.403Z,3.10
2018-09-12T08:04:44.315Z,2.90
2018-09-12T08:05:51.526Z,3.10
2018-09-12T08:06:58.343Z,2.93
2018-09-12T08:08:05.348Z,3.20
2018-09-12T08:09:13.524Z,3.33
2018-09-12T08:10:16.959Z,3.00
2018-09-12T08:11:20.436Z,3.47
2018-09-12T08:12:23.851Z,3.10
2018-09-12T08:13:27.272Z,3.03
2018-09-12T08:14:30.660Z,3.23
2018-09-12T08:15:34.118Z,3.17
2018-09-12T08:16:37.532Z,3.30
2018-09-12T08:17:40.908Z,2.80
2018-09-12T08:18:44.319Z,2.80
2018-09-12T08:19:47.701Z,3.30
2018-09-12T08:20:51.096Z,2.87
2018-09-12T08:21:54.565Z,3.03
2018-09-12T08:22:57.943Z,2.70
2018-09-12T08:24:01.362Z,3.00
2018-09-12T08:25:04.905Z,3.57
2018-09-12T08:26:08.746Z,3.43
2018-09-12T08:27:12.148Z,3.00
2018-09-12T08:28:15.506Z,3.00
2018-09-12T08:29:18.981Z,3.43
2018-09-12T08:30:22.366Z,3.20
2018-09-12T08:31:26.044Z,2.93
2018-09-12T08:32:29.481Z,2.90
2018-09-12T08:33:33.065Z,3.40
2018-09-12T08:34:36.499Z,3.53
2018-09-12T08:35:39.929Z,4.20
2018-09-12T08:36:43.348Z,4.83
2018-09-12T08:37:46.806Z,3.50
2018-09-12T08:38:50.178Z,3.57
2018-09-12T08:39:53.624Z,3.03
2018-09-12T08:40:57.048Z,3.60
2018-09-12T08:42:00.539Z,4.27
2018-09-12T08:43:03.938Z,3.53
2018-09-12T08:44:08.068Z,4.20
2018-09-12T08:45:11.484Z,4.30
2018-09-12T08:46:14.868Z,3.83
2018-09-12T08:47:18.335Z,3.47
2018-09-12T08:48:21.733Z,3.60
2018-09-12T08:49:25.190Z,3.60
2018-09-12T08:50:28.598Z,3.30
2018-09-12T08:51:32.198Z,3.57
2018-09-12T08:52:35.625Z,3.37
2018-09-12T08:53:39.042Z,3.50
2018-09-12T08:54:42.439Z,3.60
2018-09-12T08:55:46.286Z,3.33
2018-09-12T08:56:49.729Z,3.87
2018-09-12T08:57:53.214Z,3.67
2018-09-12T08:58:56.952Z,3.53
2018-09-12T09:00:00.337Z,3.53
2018-09-12T09:01:03.807Z,3.40
2018-09-12T09:02:07.276Z,3.90
2018-09-12T09:03:10.685Z,3.70
2018-09-12T09:04:14.135Z,3.33
2018-09-12T09:05:17.523Z,3.60
2018-09-12T09:06:20.952Z,3.70
2018-09-12T09:07:24.368Z,3.50
2018-09-12T09:08:27.816Z,3.87
2018-09-12T09:09:31.372Z,3.30
2018-09-12T09:10:34.797Z,3.60
2018-09-12T09:11:38.378Z,3.27
2018-09-12T09:12:41.800Z,3.23
2018-09-12T09:13:45.236Z,3.03
2018-09-12T09:14:48.649Z,3.43
2018-09-12T09:15:52.048Z,3.93
2018-09-12T09:16:55.440Z,3.50
2018-09-12T09:17:58.825Z,3.27
2018-09-12T09:19:02.505Z,3.40
2018-09-12T09:20:05.961Z,3.37
2018-09-12T09:21:09.345Z,3.50
2018-09-12T09:22:12.733Z,3.60
2018-09-12T09:23:16.121Z,4.20
2018-09-12T09:24:19.508Z,3.67
2018-09-12T09:25:22.908Z,2.77
2018-09-12T09:26:26.329Z,3.67
2018-09-12T09:27:29.694Z,3.20
2018-09-12T09:28:33.109Z,3.50
2018-09-12T09:29:36.559Z,3.50
2018-09-12T09:30:39.950Z,2.90
2018-09-12T09:31:43.349Z,3.80
2018-09-12T09:32:46.819Z,3.27
2018-09-12T09:33:50.230Z,3.40
2018-09-12T09:34:53.675Z,3.50
2018-09-12T09:35:57.079Z,3.80
2018-09-12T09:37:00.490Z,3.00
2018-09-12T09:38:03.963Z,3.67
2018-09-12T09:39:09.398Z,3.73
2018-09-12T09:40:12.798Z,3.40
2018-09-12T09:41:16.190Z,3.30
2018-09-12T09:42:19.631Z,3.40
2018-09-12T09:43:23.028Z,3.70
2018-09-12T09:44:26.422Z,3.03
2018-09-12T09:45:29.875Z,3.67
2018-09-12T09:46:33.546Z,3.63
2018-09-12T09:47:36.994Z,3.10
2018-09-12T09:48:40.571Z,3.17
2018-09-12T09:49:44.064Z,3.60
2018-09-12T09:50:47.482Z,3.10
2018-09-12T09:51:50.858Z,3.30
2018-09-12T09:52:54.280Z,3.40
2018-09-12T09:53:57.705Z,3.07
2018-09-12T09:55:01.165Z,3.63
2018-09-12T09:56:04.619Z,3.07
2018-09-12T09:57:08.733Z,3.20
2018-09-12T09:58:12.122Z,2.93
2018-09-12T09:59:15.557Z,3.97
2018-09-12T10:00:24.146Z,3.63
2018-09-12T10:01:32.862Z,3.50
2018-09-12T10:02:41.388Z,3.33
2018-09-12T10:03:50.165Z,3.23
2018-09-12T10:04:59.253Z,3.33
2018-09-12T10:06:08.183Z,3.60
2018-09-12T10:07:16.759Z,3.80
2018-09-12T10:08:25.573Z,3.50
2018-09-12T10:09:33.038Z,3.13
2018-09-12T10:10:36.580Z,3.50
2018-09-12T10:11:40.175Z,3.73
2018-09-12T10:12:44.365Z,3.87
2018-09-12T10:13:48.430Z,3.63
2018-09-12T10:14:52.726Z,4.10
2018-09-12T10:15:57.011Z,3.73
2018-09-12T10:17:01.207Z,3.37
2018-09-12T10:18:05.608Z,3.40
2018-09-12T10:19:09.828Z,3.50
2018-09-12T10:20:14.094Z,3.23
2018-09-12T10:21:18.758Z,3.33
2018-09-12T10:22:23.234Z,3.90
2018-09-12T10:23:27.397Z,3.27
2018-09-12T10:24:31.632Z,3.60
2018-09-12T10:25:35.811Z,3.43
2018-09-12T10:26:39.962Z,3.20
2018-09-12T10:27:44.205Z,3.60
2018-09-12T10:28:47.209Z,3.23
2018-09-12T10:29:51.442Z,3.47
2018-09-12T10:30:55.855Z,3.10
2018-09-12T10:32:00.006Z,4.00
2018-09-12T10:33:03.970Z,3.50
2018-09-12T10:34:08.361Z,3.50
2018-09-12T10:35:12.526Z,3.77
2018-09-12T10:36:16.736Z,3.90
2018-09-12T10:37:21.081Z,3.07
2018-09-12T10:38:25.189Z,3.50
2018-09-12T10:39:29.365Z,4.03
2018-09-12T10:40:33.656Z,3.30
2018-09-12T10:41:37.905Z,3.43
2018-09-12T10:42:42.090Z,3.60
2018-09-12T10:43:46.531Z,3.40
2018-09-12T10:44:50.745Z,3.23
2018-09-12T10:45:54.931Z,3.57
2018-09-12T10:46:59.180Z,3.50
2018-09-12T10:48:03.259Z,3.00
2018-09-12T10:49:07.818Z,3.00
2018-09-12T10:50:12.246Z,3.23
2018-09-12T10:51:16.392Z,3.60
2018-09-12T10:52:20.636Z,3.50
2018-09-12T10:53:24.809Z,3.57
2018-09-12T10:54:29.099Z,3.63
2018-09-12T10:55:33.355Z,3.30
2018-09-12T10:56:37.513Z,3.43
2018-09-12T10:57:41.711Z,3.27
2018-09-12T10:58:45.885Z,3.37
2018-09-12T10:59:50.087Z,3.37
2018-09-12T11:00:54.601Z,3.40
2018-09-12T11:01:58.177Z,3.50
2018-09-12T11:03:01.567Z,3.20
2018-09-12T11:04:04.950Z,3.40
2018-09-12T11:05:09.334Z,3.10
2018-09-12T11:06:13.136Z,3.27
2018-09-12T11:07:16.498Z,3.30
2018-09-12T11:08:20.213Z,3.00
2018-09-12T11:09:23.604Z,3.17
2018-09-12T11:10:27.255Z,3.23
2018-09-12T11:11:31.519Z,3.43
2018-09-12T11:12:35.757Z,3.13
2018-09-12T11:13:40.028Z,3.23
2018-09-12T11:14:44.218Z,3.03
2018-09-12T11:15:48.460Z,3.30
2018-09-12T11:16:52.635Z,3.23
2018-09-12T11:17:56.857Z,3.40
2018-09-12T11:19:01.228Z,3.63
2018-09-12T11:20:05.508Z,3.70
2018-09-12T11:21:09.721Z,3.10
2018-09-12T11:22:13.800Z,3.00
2018-09-12T11:23:18.049Z,3.10
2018-09-12T11:24:22.434Z,2.93
2018-09-12T11:25:26.604Z,3.47
2018-09-12T11:26:30.796Z,3.47
2018-09-12T11:27:35.193Z,3.20
2018-09-12T11:28:39.761Z,3.03
2018-09-12T11:29:43.249Z,3.27
2018-09-12T11:30:46.649Z,3.47
2018-09-12T11:31:50.047Z,4.03
2018-09-12T11:32:53.434Z,3.80
2018-09-12T11:33:56.829Z,3.60
2018-09-12T11:35:00.251Z,3.63
2018-09-12T11:36:03.650Z,4.10
2018-09-12T11:37:07.505Z,4.47
2018-09-12T11:38:10.946Z,4.20
2018-09-12T11:39:14.382Z,4.10
2018-09-12T11:40:17.807Z,4.90
2018-09-12T11:41:21.181Z,4.43
2018-09-12T11:42:24.598Z,4.33
2018-09-12T11:43:27.972Z,4.50
2018-09-12T11:44:31.468Z,4.00
2018-09-12T11:45:35.016Z,4.30
2018-09-12T11:46:38.386Z,5.13
2018-09-12T11:47:41.792Z,4.43
2018-09-12T11:48:45.355Z,4.53
2018-09-12T11:49:48.719Z,4.40
2018-09-12T11:50:52.081Z,4.70
2018-09-12T11:51:55.468Z,5.00
2018-09-12T11:52:58.892Z,4.20
2018-09-12T11:54:02.297Z,4.90
2018-09-12T11:55:06.074Z,4.90
2018-09-12T11:56:09.477Z,4.53
2018-09-12T11:57:12.856Z,4.70
2018-09-12T11:58:16.272Z,4.67
2018-09-12T11:59:19.920Z,5.50
2018-09-12T12:00:23.341Z,4.53
2018-09-12T12:01:26.759Z,4.07
2018-09-12T12:02:30.188Z,4.67
2018-09-12T12:03:33.679Z,5.43
2018-09-12T12:04:37.116Z,4.90
2018-09-12T12:05:40.496Z,4.77
2018-09-12T12:06:43.900Z,4.80
2018-09-12T12:07:47.325Z,4.57
2018-09-12T12:08:51.449Z,4.47
2018-09-12T12:09:54.991Z,5.00
2018-09-12T12:10:58.408Z,4.60
2018-09-12T12:12:02.084Z,5.40
2018-09-12T12:13:05.828Z,4.40
2018-09-12T12:14:09.422Z,5.03
2018-09-12T12:15:12.842Z,5.17
2018-09-12T12:16:16.211Z,4.80
2018-09-12T12:17:19.730Z,4.60
2018-09-12T12:18:23.418Z,4.30
2018-09-12T12:19:26.977Z,4.70
2018-09-12T12:20:30.421Z,4.33
2018-09-12T12:21:33.950Z,4.60
2018-09-12T12:22:37.376Z,4.80
2018-09-12T12:23:40.798Z,5.27
2018-09-12T12:24:44.271Z,4.60
2018-09-12T12:25:48.679Z,4.53
2018-09-12T12:26:52.262Z,4.50
2018-09-12T12:27:55.895Z,4.43
2018-09-12T12:28:59.368Z,4.57
2018-09-12T12:30:02.878Z,4.80
2018-09-12T12:31:06.295Z,5.70
2018-09-12T12:32:12.680Z,5.20
2018-09-12T12:33:19.618Z,4.50
2018-09-12T12:34:26.302Z,5.23
2018-09-12T12:35:30.208Z,5.63
2018-09-12T12:36:33.606Z,4.57
2018-09-12T12:37:37.355Z,5.27
2018-09-12T12:38:40.967Z,4.80
2018-09-12T12:39:44.580Z,4.73
2018-09-12T12:40:48.052Z,5.47
2018-09-12T12:41:51.487Z,4.63
2018-09-12T12:42:54.900Z,4.63
2018-09-12T12:43:58.330Z,4.90
2018-09-12T12:45:01.997Z,4.87
2018-09-12T12:46:05.681Z,4.40
2018-09-12T12:47:09.223Z,4.53
2018-09-12T12:48:12.640Z,5.20
2018-09-12T12:49:16.059Z,5.00
2018-09-12T12:50:19.479Z,4.37
2018-09-12T12:51:22.920Z,4.53
2018-09-12T12:52:26.533Z,4.63
2018-09-12T12:53:29.947Z,5.10
2018-09-12T12:54:33.864Z,4.43
2018-09-12T12:55:37.281Z,5.00
2018-09-12T12:56:40.698Z,4.50
2018-09-12T12:57:44.121Z,4.57
2018-09-12T12:58:47.694Z,4.70
2018-09-12T12:59:51.168Z,4.70
2018-09-12T13:00:54.595Z,4.83
2018-09-12T13:01:58.014Z,4.87
2018-09-12T13:03:01.490Z,4.30
2018-09-12T13:04:04.983Z,4.60
2018-09-12T13:05:08.481Z,5.00
2018-09-12T13:06:11.880Z,5.17
2018-09-12T13:07:15.383Z,5.17
2018-09-12T13:08:18.783Z,5.10
2018-09-12T13:09:22.209Z,5.00
2018-09-12T13:10:25.637Z,4.77
2018-09-12T13:11:29.261Z,5.00
2018-09-12T13:12:32.782Z,4.67
2018-09-12T13:13:36.305Z,5.10
2018-09-12T13:14:39.884Z,5.03
2018-09-12T13:15:43.214Z,4.60
2018-09-12T13:16:46.673Z,4.90
2018-09-12T13:17:50.113Z,4.90
2018-09-12T13:18:53.509Z,5.03
2018-09-12T13:19:56.901Z,4.60
2018-09-12T13:21:00.779Z,4.43
2018-09-12T13:22:04.469Z,4.90
2018-09-12T13:23:07.892Z,5.30
2018-09-12T13:24:11.289Z,4.70
2018-09-12T13:25:14.734Z,4.90
2018-09-12T13:26:18.105Z,4.70
2018-09-12T13:27:21.621Z,4.87
2018-09-12T13:28:25.011Z,4.37
2018-09-12T13:29:28.463Z,4.63
2018-09-12T13:30:31.847Z,4.90
2018-09-12T13:31:35.267Z,5.27
2018-09-12T13:32:38.682Z,5.07
2018-09-12T13:33:42.081Z,5.30
2018-09-12T13:34:45.506Z,4.20
2018-09-12T13:35:48.910Z,5.07
2018-09-12T13:36:52.329Z,4.90
2018-09-12T13:37:55.742Z,5.23
2018-09-12T13:38:59.231Z,5.37
2018-09-12T13:40:02.661Z,5.10
2018-09-12T13:41:06.161Z,5.10
2018-09-12T13:42:09.545Z,4.70
2018-09-12T13:43:13.391Z,4.83
2018-09-12T13:44:16.830Z,5.00
2018-09-12T13:45:20.306Z,5.03
2018-09-12T13:46:23.791Z,5.10
2018-09-12T13:47:27.193Z,4.50
2018-09-12T13:48:30.605Z,5.03
2018-09-12T13:49:34.049Z,4.70
2018-09-12T13:50:37.467Z,5.13
2018-09-12T13:51:40.856Z,4.60
2018-09-12T13:52:44.933Z,4.83
2018-09-12T13:53:48.330Z,5.20
2018-09-12T13:54:51.755Z,4.30
2018-09-12T13:55:55.185Z,4.57
2018-09-12T13:56:58.596Z,5.03
2018-09-12T13:58:02.270Z,4.97
2018-09-12T13:59:05.705Z,5.80
2018-09-12T14:00:09.148Z,4.83
2018-09-12T14:01:12.538Z,4.47
2018-09-12T14:02:15.952Z,4.90
2018-09-12T14:03:19.479Z,5.40
2018-09-12T14:04:22.842Z,5.03
2018-09-12T14:05:26.238Z,5.93
2018-09-12T14:06:29.661Z,5.20
2018-09-12T14:07:33.696Z,5.13